Time;durP1;ratioP1;P1;durP2;ratioP2;P2;SDS_P1;SDS_P2;PMS_P1;PMS_P2;Temp;Humidity;BMP_temperature;BMP_pressure;BME280_temperature;BME280_humidity;BME280_pressure;Samples;Min_cycle;Max_cycle;Signal;HPM_P1;HPM_P2
2023/03/13 00:01:46;;;;;;;0.80;0.80;;;-6.10;99.90;;;;;;5055183;28;20194;-67
2023/03/13 00:04:12;;;;;;;0.70;0.70;;;-6.30;99.90;;;;;;5037367;28;20237;-68
2023/03/13 00:06:39;;;;;;;0.83;0.83;;;-6.30;99.90;;;;;;5037337;28;20211;-68
2023/03/13 00:09:07;;;;;;;0.80;0.80;;;-6.40;99.90;;;;;;5055255;28;20660;-67
2023/03/13 00:11:33;;;;;;;0.60;0.60;;;-6.50;99.90;;;;;;5054882;28;20213;-67
2023/03/13 00:14:01;;;;;;;0.80;0.80;;;-6.60;99.90;;;;;;5055071;28;20205;-67
2023/03/13 00:16:27;;;;;;;1.83;1.73;;;-6.70;99.90;;;;;;5054910;28;20197;-67
2023/03/13 00:18:55;;;;;;;0.93;0.93;;;-6.70;99.90;;;;;;5055131;28;20288;-67
2023/03/13 00:21:23;;;;;;;0.87;0.87;;;-6.60;99.90;;;;;;5054769;28;20221;-67
2023/03/13 00:23:49;;;;;;;0.80;0.80;;;-6.60;99.90;;;;;;5033617;28;20198;-68
2023/03/13 00:26:17;;;;;;;0.80;0.80;;;-6.60;99.90;;;;;;5034578;28;20203;-68
2023/03/13 00:28:44;;;;;;;0.70;0.70;;;-6.60;99.90;;;;;;5034316;28;20213;-68
2023/03/13 00:31:14;;;;;;;0.70;0.70;;;-6.50;99.90;;;;;;5033526;28;20225;-67
2023/03/13 00:33:45;;;;;;;0.80;0.80;;;-6.50;99.90;;;;;;5034809;28;20206;-68
2023/03/13 00:36:13;;;;;;;0.70;0.70;;;-6.40;99.90;;;;;;5046083;28;20216;-68
2023/03/13 00:38:40;;;;;;;0.70;0.70;;;-6.40;99.90;;;;;;5054607;28;20194;-68
2023/03/13 00:41:15;;;;;;;0.90;0.90;;;-6.40;99.90;;;;;;5054636;28;20332;-68
2023/03/13 00:43:42;;;;;;;0.90;0.90;;;-6.30;99.90;;;;;;5054483;28;20193;-67
2023/03/13 00:46:09;;;;;;;0.90;0.90;;;-6.20;99.90;;;;;;5054512;28;20235;-67
2023/03/13 00:48:35;;;;;;;0.90;0.90;;;-6.10;99.90;;;;;;5054364;28;20665;-68
2023/03/13 00:51:01;;;;;;;0.80;0.80;;;-6.10;99.90;;;;;;5054422;28;20205;-67
2023/03/13 00:53:28;;;;;;;0.90;0.90;;;-6.00;99.90;;;;;;5054283;28;20280;-67
2023/03/13 00:56:17;;;;;;;0.90;0.90;;;-6.00;99.90;;;;;;5053180;28;20682;-67
2023/03/13 00:58:45;;;;;;;0.70;0.70;;;-5.90;99.90;;;;;;5052889;28;20602;-68
2023/03/13 01:01:25;;;;;;;0.80;0.80;;;-5.80;99.90;;;;;;5053207;28;20201;-68
2023/03/13 01:04:11;;;;;;;0.80;0.80;;;-5.80;99.90;;;;;;5054238;28;20684;-68
2023/03/13 01:06:41;;;;;;;0.80;0.80;;;-5.70;99.90;;;;;;5052565;28;20213;-68
2023/03/13 01:09:10;;;;;;;0.80;0.80;;;-5.70;99.90;;;;;;5036249;28;20213;-68
2023/03/13 01:11:38;;;;;;;0.80;0.80;;;-5.70;99.90;;;;;;5053672;28;20217;-67
2023/03/13 01:14:10;;;;;;;0.80;0.80;;;-5.60;99.90;;;;;;5053955;28;20204;-67
2023/03/13 01:16:37;;;;;;;0.80;0.80;;;-5.60;99.90;;;;;;5053672;28;20208;-68
2023/03/13 01:19:12;;;;;;;0.80;0.80;;;-5.50;99.90;;;;;;5053946;28;20193;-68
2023/03/13 01:21:38;;;;;;;0.90;0.90;;;-5.50;99.90;;;;;;5053526;28;20250;-68
2023/03/13 01:24:04;;;;;;;0.80;0.80;;;-5.50;99.90;;;;;;5053623;28;20204;-68
2023/03/13 01:26:30;;;;;;;0.80;0.80;;;-5.50;99.90;;;;;;5053593;28;20193;-67
2023/03/13 01:28:56;;;;;;;0.73;0.73;;;-5.40;99.90;;;;;;5053787;28;20212;-68
2023/03/13 01:31:31;;;;;;;0.80;0.80;;;-5.20;99.90;;;;;;5054158;28;20208;-68
2023/03/13 01:33:59;;;;;;;0.80;0.80;;;-5.10;99.90;;;;;;5053916;28;20652;-68
2023/03/13 01:36:25;;;;;;;0.70;0.70;;;-5.00;99.90;;;;;;5052853;28;20339;-68
2023/03/13 01:38:53;;;;;;;0.80;0.80;;;-4.90;99.90;;;;;;5053674;28;20208;-68
2023/03/13 01:41:21;;;;;;;0.80;0.80;;;-4.90;99.90;;;;;;5035471;28;20579;-69
2023/03/13 01:43:46;;;;;;;0.80;0.80;;;-4.90;99.90;;;;;;5053439;28;20206;-68
2023/03/13 01:46:20;;;;;;;0.70;0.70;;;-4.80;99.90;;;;;;5053547;28;20197;-68
2023/03/13 01:48:55;;;;;;;0.70;0.70;;;-4.70;99.90;;;;;;5053411;28;20193;-68
2023/03/13 01:51:35;;;;;;;0.77;0.77;;;-4.60;99.90;;;;;;5053060;28;20219;-68
2023/03/13 01:54:39;;;;;;;0.80;0.80;;;-4.60;99.90;;;;;;5051952;28;20202;-68
2023/03/13 01:57:16;;;;;;;0.80;0.80;;;-4.50;99.90;;;;;;5025023;28;20216;-68
2023/03/13 01:59:50;;;;;;;0.80;0.80;;;-4.50;99.90;;;;;;5053002;28;20189;-68
2023/03/13 02:02:16;;;;;;;0.70;0.70;;;-4.50;99.90;;;;;;5053466;28;20292;-71
2023/03/13 02:04:47;;;;;;;0.90;0.90;;;-4.50;99.90;;;;;;5068707;22;20240;-79
2023/03/13 02:07:20;;;;;;;0.80;0.80;;;-4.40;99.90;;;;;;5034437;28;20197;-79
2023/03/13 02:09:50;;;;;;;0.80;0.80;;;-4.40;99.90;;;;;;5052473;28;20564;-80
2023/03/13 02:12:30;;;;;;;2.30;1.80;;;-4.50;99.90;;;;;;5052197;28;20576;-79
2023/03/13 02:14:59;;;;;;;0.80;0.80;;;-4.50;99.90;;;;;;5032326;28;20600;-79
2023/03/13 02:17:26;;;;;;;0.80;0.80;;;-4.50;99.90;;;;;;5032329;28;20257;-79
2023/03/13 02:19:52;;;;;;;0.80;0.80;;;-4.50;99.90;;;;;;5032505;28;20679;-79
2023/03/13 02:22:47;;;;;;;0.90;0.90;;;-4.50;99.90;;;;;;5032450;28;20198;-79
2023/03/13 02:25:22;;;;;;;0.80;0.80;;;-4.40;99.90;;;;;;5032859;28;20254;-79
2023/03/13 02:27:50;;;;;;;0.80;0.80;;;-4.40;99.90;;;;;;5052006;28;20193;-79
2023/03/13 02:30:15;;;;;;;1.00;1.00;;;-4.40;99.90;;;;;;5034428;28;20197;-79
2023/03/13 02:32:43;;;;;;;0.77;0.77;;;-4.40;99.90;;;;;;5034145;28;20351;-79
2023/03/13 02:35:12;;;;;;;0.70;0.70;;;-4.30;99.90;;;;;;5052256;28;20224;-79
2023/03/13 02:37:41;;;;;;;0.82;0.82;;;-4.30;99.90;;;;;;5052140;28;20537;-79
2023/03/13 02:40:10;;;;;;;0.70;0.70;;;-4.30;99.90;;;;;;5052242;28;20562;-80
2023/03/13 02:42:40;;;;;;;0.70;0.70;;;-4.20;99.90;;;;;;5034080;28;20246;-79
2023/03/13 02:45:06;;;;;;;0.70;0.70;;;-4.20;99.90;;;;;;5052105;28;20664;-79
2023/03/13 02:47:32;;;;;;;0.80;0.80;;;-4.20;99.90;;;;;;5034051;28;20198;-79
2023/03/13 02:49:57;;;;;;;0.73;0.73;;;-4.10;99.90;;;;;;5034292;28;20205;-79
2023/03/13 02:52:30;;;;;;;0.73;0.73;;;-4.00;99.90;;;;;;5051763;28;20205;-80
2023/03/13 02:55:03;;;;;;;0.70;0.70;;;-4.00;99.90;;;;;;5034467;28;20225;-79
2023/03/13 02:57:30;;;;;;;0.70;0.70;;;-4.00;99.90;;;;;;5051738;28;20193;-79
2023/03/13 02:59:56;;;;;;;0.90;0.90;;;-4.00;99.90;;;;;;5052046;28;20580;-79
2023/03/13 03:02:22;;;;;;;0.77;0.77;;;-3.90;99.90;;;;;;5069894;28;20728;-80
2023/03/13 03:04:48;;;;;;;0.70;0.70;;;-3.80;99.90;;;;;;5071757;28;20248;-79
2023/03/13 03:07:14;;;;;;;0.75;0.75;;;-3.80;99.90;;;;;;5044246;28;20206;-79
2023/03/13 03:09:39;;;;;;;0.80;0.80;;;-3.80;99.90;;;;;;5051686;28;20247;-79
2023/03/13 03:12:05;;;;;;;0.80;0.80;;;-3.80;99.90;;;;;;5033949;28;20217;-79
2023/03/13 03:14:31;;;;;;;0.88;0.88;;;-3.80;99.90;;;;;;5051520;28;20599;-79
2023/03/13 03:16:57;;;;;;;0.70;0.70;;;-3.80;99.90;;;;;;5033924;28;20189;-79
2023/03/13 03:19:23;;;;;;;0.85;0.85;;;-3.80;99.90;;;;;;5033814;28;20200;-79
2023/03/13 03:21:48;;;;;;;0.68;0.68;;;-3.70;99.90;;;;;;5051802;28;20198;-79
2023/03/13 03:24:15;;;;;;;0.82;0.82;;;-3.70;99.90;;;;;;5052257;28;20201;-79
2023/03/13 03:26:40;;;;;;;0.80;0.80;;;-3.70;99.90;;;;;;5055194;28;20204;-79
2023/03/13 03:29:09;;;;;;;0.70;0.70;;;-3.70;99.90;;;;;;5037530;28;20193;-79
2023/03/13 03:31:35;;;;;;;0.80;0.80;;;-3.60;99.90;;;;;;5055104;28;20202;-79
2023/03/13 03:34:01;;;;;;;0.80;0.80;;;-3.60;99.90;;;;;;5055376;28;20276;-78
2023/03/13 03:36:28;;;;;;;0.80;0.80;;;-3.60;99.90;;;;;;5055128;28;20271;-79
2023/03/13 03:38:54;;;;;;;0.80;0.80;;;-3.60;99.90;;;;;;5055270;28;20197;-79
2023/03/13 03:41:20;;;;;;;0.70;0.70;;;-3.60;99.90;;;;;;5037118;28;20206;-79
2023/03/13 03:43:46;;;;;;;0.70;0.70;;;-3.50;99.90;;;;;;5055209;28;20198;-79
2023/03/13 03:46:13;;;;;;;0.85;0.85;;;-3.50;99.90;;;;;;5055141;28;20201;-79
2023/03/13 03:48:39;;;;;;;0.60;0.60;;;-3.50;99.90;;;;;;5054965;28;20668;-79
2023/03/13 03:51:06;;;;;;;0.55;0.55;;;-3.40;99.90;;;;;;5054976;28;20209;-79
2023/03/13 03:53:31;;;;;;;0.85;0.85;;;-3.40;99.90;;;;;;5020361;28;20197;-80
2023/03/13 03:55:57;;;;;;;0.70;0.70;;;-3.40;99.90;;;;;;5037123;28;20563;-79
2023/03/13 03:58:24;;;;;;;0.60;0.60;;;-3.40;99.90;;;;;;5054785;28;20531;-79
2023/03/13 04:00:49;;;;;;;0.70;0.70;;;-3.40;99.90;;;;;;5054839;28;20199;-79
2023/03/13 04:03:16;;;;;;;0.70;0.70;;;-3.30;99.90;;;;;;5060842;28;20630;-79
2023/03/13 04:05:42;;;;;;;0.80;0.80;;;-3.30;99.90;;;;;;5074407;28;20224;-79
2023/03/13 04:08:09;;;;;;;0.80;0.80;;;-3.30;99.90;;;;;;5056839;28;20667;-79
2023/03/13 04:10:35;;;;;;;0.80;0.80;;;-3.30;99.90;;;;;;5056472;28;20680;-79
2023/03/13 04:13:01;;;;;;;0.70;0.70;;;-3.30;99.90;;;;;;5036869;28;20255;-79
2023/03/13 04:15:27;;;;;;;0.70;0.70;;;-3.30;99.90;;;;;;5054505;28;20680;-79
2023/03/13 04:17:52;;;;;;;0.80;0.80;;;-3.30;99.90;;;;;;5054641;28;20185;-79
2023/03/13 04:20:18;;;;;;;0.70;0.70;;;-3.20;99.90;;;;;;5054315;28;20202;-79
2023/03/13 04:22:44;;;;;;;0.80;0.80;;;-3.20;99.90;;;;;;5054433;28;20194;-79
2023/03/13 04:25:10;;;;;;;0.73;0.73;;;-3.20;99.90;;;;;;5054131;28;20691;-79
2023/03/13 04:27:36;;;;;;;0.63;0.63;;;-3.20;99.90;;;;;;5036277;28;20233;-79
2023/03/13 04:30:03;;;;;;;0.75;0.75;;;-3.30;99.90;;;;;;5054373;28;20201;-79
2023/03/13 04:32:29;;;;;;;0.80;0.80;;;-3.30;99.90;;;;;;5054013;28;20213;-79
2023/03/13 04:34:55;;;;;;;0.82;0.82;;;-3.20;99.90;;;;;;5036287;28;20198;-79
2023/03/13 04:37:20;;;;;;;0.60;0.60;;;-3.20;99.90;;;;;;5054190;28;20317;-79
2023/03/13 04:39:46;;;;;;;0.75;0.75;;;-3.10;99.90;;;;;;5036305;28;20715;-79
2023/03/13 04:42:13;;;;;;;0.80;0.80;;;-3.20;99.90;;;;;;5036583;28;20198;-79
2023/03/13 04:44:38;;;;;;;0.70;0.70;;;-3.10;99.90;;;;;;5053827;28;20562;-79
2023/03/13 04:47:04;;;;;;;0.70;0.70;;;-3.20;99.90;;;;;;5054138;28;20208;-79
2023/03/13 04:49:30;;;;;;;0.80;0.80;;;-3.10;99.90;;;;;;5053703;28;20201;-79
2023/03/13 04:51:56;;;;;;;0.70;0.70;;;-3.10;99.90;;;;;;5036026;28;20209;-79
2023/03/13 04:54:22;;;;;;;0.70;0.70;;;-3.10;99.90;;;;;;5053754;28;20194;-79
2023/03/13 04:56:47;;;;;;;0.70;0.70;;;-3.10;99.90;;;;;;5053830;28;20193;-79
2023/03/13 04:59:14;;;;;;;0.90;0.90;;;-3.10;99.90;;;;;;5035648;28;20223;-79
2023/03/13 05:01:41;;;;;;;0.80;0.80;;;-3.10;99.90;;;;;;5053473;28;20208;-79
2023/03/13 05:04:07;;;;;;;0.80;0.80;;;-3.10;99.90;;;;;;5052142;28;20595;-79
2023/03/13 05:06:33;;;;;;;0.70;0.70;;;-3.10;99.90;;;;;;5053372;28;20210;-79
2023/03/13 05:08:59;;;;;;;0.60;0.60;;;-3.10;99.90;;;;;;5053595;28;20190;-79
2023/03/13 05:11:25;;;;;;;0.73;0.73;;;-3.00;99.90;;;;;;5053249;28;20295;-79
2023/03/13 05:13:50;;;;;;;0.80;0.80;;;-3.10;99.90;;;;;;5053455;28;20197;-79
2023/03/13 05:16:16;;;;;;;0.70;0.70;;;-3.00;99.90;;;;;;5053398;28;20203;-79
2023/03/13 05:18:42;;;;;;;0.70;0.70;;;-3.00;99.90;;;;;;5053220;28;20189;-79
2023/03/13 05:21:08;;;;;;;0.75;0.75;;;-3.00;99.90;;;;;;5053364;28;20193;-79
2023/03/13 05:23:34;;;;;;;0.70;0.70;;;-3.00;99.90;;;;;;5052816;28;20197;-79
2023/03/13 05:26:00;;;;;;;0.70;0.70;;;-2.90;99.90;;;;;;5053400;28;20704;-79
2023/03/13 05:28:26;;;;;;;0.73;0.73;;;-2.90;99.90;;;;;;5053040;28;20198;-79
2023/03/13 05:30:52;;;;;;;1.15;1.08;;;-2.90;99.90;;;;;;5053097;28;20197;-79
2023/03/13 05:33:20;;;;;;;0.70;0.70;;;-2.80;99.90;;;;;;5035283;28;20212;-79
2023/03/13 05:35:47;;;;;;;0.70;0.70;;;-2.90;99.90;;;;;;5053368;28;20382;-79
2023/03/13 05:38:13;;;;;;;0.70;0.70;;;-2.80;99.90;;;;;;5035166;28;20281;-79
2023/03/13 05:40:39;;;;;;;0.73;0.73;;;-2.80;99.90;;;;;;5052898;28;20221;-79
2023/03/13 05:43:06;;;;;;;0.77;0.77;;;-2.80;99.90;;;;;;5053005;28;20189;-79
2023/03/13 05:45:32;;;;;;;0.73;0.73;;;-2.70;99.90;;;;;;5052818;28;20186;-79
2023/03/13 05:47:58;;;;;;;0.80;0.80;;;-2.70;99.90;;;;;;5034650;28;20284;-79
2023/03/13 05:50:24;;;;;;;0.60;0.60;;;-2.70;99.90;;;;;;5052771;28;20247;-79
2023/03/13 05:52:50;;;;;;;0.77;0.77;;;-2.70;99.90;;;;;;5052883;28;20611;-79
2023/03/13 05:55:17;;;;;;;0.80;0.80;;;-2.70;99.90;;;;;;5052653;28;20732;-79
2023/03/13 05:57:47;;;;;;;0.80;0.80;;;-2.70;99.90;;;;;;5052500;28;20255;-79
2023/03/13 06:00:14;;;;;;;0.65;0.65;;;-2.70;99.90;;;;;;5052620;28;20671;-80
2023/03/13 06:02:41;;;;;;;0.70;0.70;;;-2.60;99.90;;;;;;5052163;28;20667;-79
2023/03/13 06:05:08;;;;;;;0.73;0.73;;;-2.60;99.90;;;;;;5052308;28;20229;-79
2023/03/13 06:07:33;;;;;;;0.88;0.88;;;-2.60;99.90;;;;;;5051088;28;20668;-79
2023/03/13 06:09:59;;;;;;;0.70;0.70;;;-2.60;99.90;;;;;;5052530;28;20221;-79
2023/03/13 06:12:25;;;;;;;0.70;0.70;;;-2.60;99.90;;;;;;5034448;28;20213;-79
2023/03/13 06:14:51;;;;;;;0.80;0.80;;;-2.60;99.90;;;;;;5034394;28;20332;-79
2023/03/13 06:17:16;;;;;;;0.80;0.80;;;-2.50;99.90;;;;;;5034600;28;20743;-78
2023/03/13 06:19:42;;;;;;;0.82;0.82;;;-2.50;99.90;;;;;;5052184;28;20197;-79
2023/03/13 06:22:08;;;;;;;1.00;1.00;;;-2.40;99.90;;;;;;5052317;28;20189;-79
2023/03/13 06:24:34;;;;;;;0.70;0.70;;;-2.40;99.90;;;;;;5051729;28;20204;-79
2023/03/13 06:27:00;;;;;;;0.70;0.70;;;-2.40;99.90;;;;;;5052249;28;20193;-79
2023/03/13 06:29:26;;;;;;;0.70;0.70;;;-2.30;99.90;;;;;;5034430;28;20687;-79
2023/03/13 06:31:51;;;;;;;0.63;0.63;;;-2.30;99.90;;;;;;5052356;28;20249;-79
2023/03/13 06:34:17;;;;;;;0.70;0.70;;;-2.20;99.90;;;;;;5052312;28;20193;-79
2023/03/13 06:36:43;;;;;;;0.68;0.68;;;-2.20;99.90;;;;;;5034239;28;20280;-78
2023/03/13 06:39:10;;;;;;;0.80;0.80;;;-2.30;99.90;;;;;;5052264;28;20284;-79
2023/03/13 06:41:36;;;;;;;0.70;0.70;;;-2.20;99.90;;;;;;5034260;28;20200;-79
2023/03/13 06:44:02;;;;;;;0.68;0.68;;;-2.20;99.90;;;;;;5052295;28;20186;-79
2023/03/13 06:46:28;;;;;;;0.60;0.60;;;-2.20;99.90;;;;;;5052037;28;20209;-79
2023/03/13 06:48:57;;;;;;;0.80;0.80;;;-2.20;99.90;;;;;;5052286;28;20189;-79
2023/03/13 06:51:27;;;;;;;0.77;0.77;;;-2.20;99.90;;;;;;5051591;28;20204;-79
2023/03/13 06:53:53;;;;;;;0.80;0.80;;;-2.20;99.90;;;;;;5052121;28;20563;-79
2023/03/13 06:56:20;;;;;;;0.80;0.80;;;-2.10;99.90;;;;;;5034196;28;20197;-79
2023/03/13 06:58:47;;;;;;;0.77;0.77;;;-2.10;99.90;;;;;;5052414;28;20194;-78
2023/03/13 07:01:14;;;;;;;0.70;0.70;;;-2.10;99.90;;;;;;5056019;28;20193;-78
2023/03/13 07:03:40;;;;;;;0.60;0.60;;;-2.10;99.90;;;;;;5055838;28;20197;-80
2023/03/13 07:06:07;;;;;;;0.80;0.80;;;-2.10;99.90;;;;;;5055907;28;20193;-78
2023/03/13 07:08:34;;;;;;;0.70;0.70;;;-2.10;99.90;;;;;;5055753;28;20197;-78
2023/03/13 07:11:03;;;;;;;0.70;0.70;;;-2.00;99.90;;;;;;5055746;28;20216;-79
2023/03/13 07:13:29;;;;;;;0.70;0.70;;;-2.00;99.90;;;;;;5055612;28;20194;-78
2023/03/13 07:15:58;;;;;;;0.88;0.88;;;-2.00;99.90;;;;;;5054549;28;20190;-79
2023/03/13 07:18:24;;;;;;;0.60;0.60;;;-1.90;99.90;;;;;;5055590;28;20596;-78
2023/03/13 07:20:54;;;;;;;0.70;0.70;;;-1.90;99.90;;;;;;5055644;28;20223;-79
2023/03/13 07:23:21;;;;;;;0.80;0.80;;;-1.80;99.90;;;;;;5055310;28;20280;-79
2023/03/13 07:25:54;;;;;;;0.70;0.70;;;-1.80;99.90;;;;;;5055415;28;20198;-79
2023/03/13 07:28:21;;;;;;;1.13;1.02;;;-1.80;99.90;;;;;;5037446;28;20271;-79
2023/03/13 07:30:47;;;;;;;0.75;0.75;;;-1.70;99.90;;;;;;5037863;28;20198;-78
2023/03/13 07:33:13;;;;;;;0.90;0.90;;;-1.80;99.90;;;;;;5055342;28;20678;-78
2023/03/13 07:35:47;;;;;;;0.73;0.73;;;-1.80;99.90;;;;;;5055284;28;20200;-79
2023/03/13 07:38:12;;;;;;;0.70;0.70;;;-1.70;99.90;;;;;;5055342;28;20189;-78
2023/03/13 07:40:38;;;;;;;0.80;0.80;;;-1.60;99.90;;;;;;5037217;28;20236;-78
2023/03/13 07:43:04;;;;;;;0.70;0.70;;;-1.50;99.90;;;;;;5055273;28;20213;-79
2023/03/13 07:45:29;;;;;;;0.82;0.82;;;-1.50;99.90;;;;;;5055055;28;20194;-79
2023/03/13 07:47:55;;;;;;;0.90;0.90;;;-1.40;99.90;;;;;;5055127;28;20285;-79
2023/03/13 07:50:21;;;;;;;0.65;0.65;;;-1.40;99.90;;;;;;5055009;28;20193;-78
2023/03/13 07:52:47;;;;;;;0.60;0.60;;;-1.30;99.90;;;;;;5055078;28;20202;-78
2023/03/13 07:55:12;;;;;;;0.70;0.70;;;-1.30;99.90;;;;;;5054887;28;20194;-78
2023/03/13 07:57:38;;;;;;;0.50;0.50;;;-1.20;99.90;;;;;;5036970;28;20280;-79
2023/03/13 08:00:08;;;;;;;0.70;0.70;;;-1.20;99.90;;;;;;5037158;28;20700;-79
2023/03/13 08:02:34;;;;;;;0.60;0.60;;;-1.20;99.90;;;;;;5054539;28;20190;-78
2023/03/13 08:05:00;;;;;;;0.70;0.70;;;-1.30;99.90;;;;;;5054628;28;20240;-79
2023/03/13 08:07:25;;;;;;;0.70;0.70;;;-1.30;99.90;;;;;;5036800;28;20205;-78
2023/03/13 08:09:51;;;;;;;0.60;0.60;;;-1.20;99.90;;;;;;5055000;28;20263;-78
2023/03/13 08:12:17;;;;;;;0.80;0.80;;;-1.20;99.90;;;;;;5037402;28;20300;-78
2023/03/13 08:14:42;;;;;;;0.60;0.60;;;-1.30;99.90;;;;;;5037555;28;20208;-78
2023/03/13 08:17:08;;;;;;;0.70;0.70;;;-1.20;99.90;;;;;;5055339;28;20224;-78
2023/03/13 08:19:34;;;;;;;1.55;1.40;;;-1.20;99.90;;;;;;5054843;28;20190;-78
2023/03/13 08:21:59;;;;;;;0.75;0.75;;;-1.10;99.90;;;;;;5055195;28;20201;-78
2023/03/13 08:24:25;;;;;;;0.70;0.70;;;-1.10;99.90;;;;;;5036661;28;20742;-78
2023/03/13 08:26:51;;;;;;;0.60;0.60;;;-1.10;99.90;;;;;;5054779;28;20277;-78
2023/03/13 08:29:16;;;;;;;0.70;0.70;;;-1.10;99.90;;;;;;5054760;28;20193;-78
2023/03/13 08:31:47;;;;;;;0.60;0.60;;;-1.00;99.90;;;;;;5054667;28;20210;-78
2023/03/13 08:34:14;;;;;;;9.70;2.15;;;-0.90;99.90;;;;;;5037361;28;20554;-78
2023/03/13 08:36:41;;;;;;;0.68;0.68;;;-1.00;99.90;;;;;;5054733;28;20568;-78
2023/03/13 08:39:13;;;;;;;0.68;0.68;;;-0.90;99.90;;;;;;5054787;28;20225;-78
2023/03/13 08:41:40;;;;;;;0.80;0.80;;;-0.90;99.90;;;;;;5054453;28;20225;-78
2023/03/13 08:44:07;;;;;;;0.80;0.80;;;-1.00;99.90;;;;;;5036428;28;20205;-78
2023/03/13 08:46:35;;;;;;;0.80;0.80;;;-0.90;99.90;;;;;;5054408;28;20660;-78
2023/03/13 08:49:02;;;;;;;0.60;0.60;;;-0.90;99.90;;;;;;5054668;28;20231;-78
2023/03/13 08:51:28;;;;;;;0.70;0.70;;;-0.70;99.90;;;;;;5054420;28;20661;-78
2023/03/13 08:53:55;;;;;;;0.60;0.60;;;-0.60;99.90;;;;;;5035918;28;20198;-78
2023/03/13 08:56:23;;;;;;;0.70;0.70;;;-0.60;99.90;;;;;;5053592;28;20201;-78
2023/03/13 08:58:51;;;;;;;0.75;0.75;;;-0.50;99.90;;;;;;5053810;28;20268;-78
2023/03/13 09:01:17;;;;;;;0.70;0.70;;;-0.50;99.90;;;;;;5053652;28;20193;-78
2023/03/13 09:03:43;;;;;;;0.60;0.60;;;-0.60;99.90;;;;;;5053386;28;20204;-78
2023/03/13 09:06:09;;;;;;;0.70;0.70;;;-0.50;99.90;;;;;;5053641;28;20281;-78
2023/03/13 09:08:37;;;;;;;0.63;0.63;;;-0.50;99.90;;;;;;5053546;28;20739;-78
2023/03/13 09:11:08;;;;;;;0.60;0.60;;;-0.40;99.90;;;;;;5053046;28;20564;-78
2023/03/13 09:13:37;;;;;;;0.60;0.60;;;-0.30;99.90;;;;;;5052764;28;20189;-78
2023/03/13 09:16:13;;;;;;;0.73;0.73;;;-0.30;99.90;;;;;;5036287;28;20197;-78
2023/03/13 09:18:39;;;;;;;0.70;0.70;;;-0.20;99.90;;;;;;5035880;28;20201;-78
2023/03/13 09:21:08;;;;;;;0.60;0.60;;;-0.30;99.90;;;;;;5035965;28;20197;-79
2023/03/13 09:23:34;;;;;;;0.60;0.60;;;-0.30;99.90;;;;;;5052917;28;20197;-78
2023/03/13 09:26:00;;;;;;;0.60;0.60;;;-0.20;99.90;;;;;;5035557;28;20216;-76
2023/03/13 09:28:26;;;;;;;0.70;0.70;;;-0.10;99.90;;;;;;5035214;28;20330;-78
2023/03/13 09:30:53;;;;;;;0.70;0.70;;;-0.10;99.90;;;;;;5053218;28;20200;-78
2023/03/13 09:33:22;;;;;;;0.90;0.90;;;-0.20;99.90;;;;;;5053179;28;20190;-78
2023/03/13 09:35:51;;;;;;;0.50;0.50;;;-0.20;99.90;;;;;;5035236;28;20676;-78
2023/03/13 09:38:18;;;;;;;0.60;0.60;;;-0.20;99.90;;;;;;5053709;28;20640;-78
2023/03/13 09:40:49;;;;;;;0.70;0.70;;;-0.30;99.90;;;;;;5053589;28;20644;-78
2023/03/13 09:43:28;;;;;;;0.60;0.60;;;-0.30;99.90;;;;;;5053623;28;20197;-78
2023/03/13 09:45:59;;;;;;;0.70;0.70;;;-0.20;99.90;;;;;;5053547;28;20538;-78
2023/03/13 09:48:32;;;;;;;0.68;0.68;;;-0.20;99.90;;;;;;5053070;28;20565;-78
2023/03/13 09:51:20;;;;;;;0.60;0.60;;;0.10;99.90;;;;;;5053378;28;20235;-78
2023/03/13 09:54:12;;;;;;;0.70;0.70;;;0.20;99.90;;;;;;5053221;28;20196;-78
2023/03/13 09:56:53;;;;;;;0.50;0.50;;;0.20;99.90;;;;;;5035414;28;20302;-78
2023/03/13 09:59:29;;;;;;;0.80;0.80;;;0.20;99.90;;;;;;5053071;28;20185;-78
2023/03/13 10:01:58;;;;;;;0.70;0.70;;;0.10;99.90;;;;;;5053057;28;20226;-78
2023/03/13 10:04:41;;;;;;;0.60;0.60;;;0.20;99.90;;;;;;5053224;28;20233;-78
2023/03/13 10:07:10;;;;;;;0.50;0.50;;;0.10;99.90;;;;;;5053089;28;20270;-78
2023/03/13 10:09:36;;;;;;;0.65;0.65;;;0.00;99.90;;;;;;5053051;28;20197;-78
2023/03/13 10:12:11;;;;;;;0.70;0.70;;;0.10;99.90;;;;;;5053040;28;20206;-78
2023/03/13 10:14:37;;;;;;;0.80;0.80;;;0.10;99.90;;;;;;5053012;28;20264;-78
2023/03/13 10:17:08;;;;;;;1.02;0.93;;;0.20;99.90;;;;;;5053283;28;20763;-78
2023/03/13 10:19:38;;;;;;;0.60;0.60;;;0.30;99.90;;;;;;5052441;28;20280;-78
2023/03/13 10:22:16;;;;;;;0.57;0.57;;;0.20;99.90;;;;;;5052431;28;20258;-78
2023/03/13 10:24:53;;;;;;;0.73;0.73;;;0.30;99.90;;;;;;5035140;28;20197;-78
2023/03/13 10:27:19;;;;;;;0.70;0.70;;;0.40;99.90;;;;;;5034736;28;20197;-78
2023/03/13 10:29:45;;;;;;;0.70;0.70;;;0.50;99.90;;;;;;5052187;28;20685;-78
2023/03/13 10:32:16;;;;;;;0.60;0.60;;;0.50;99.90;;;;;;5052231;28;20672;-78
2023/03/13 10:35:01;;;;;;;0.80;0.80;;;0.50;99.90;;;;;;5057838;28;20243;-79
2023/03/13 10:37:30;;;;;;;0.70;0.70;;;0.60;99.90;;;;;;5058791;28;20560;-79
2023/03/13 10:40:25;;;;;;;1.10;1.10;;;0.60;99.90;;;;;;5058792;28;20196;-79
2023/03/13 10:42:58;;;;;;;0.60;0.60;;;0.60;99.90;;;;;;5058705;28;20209;-79
2023/03/13 10:45:24;;;;;;;5.78;2.92;;;0.60;99.90;;;;;;5058602;28;20197;-79
2023/03/13 10:48:10;;;;;;;0.60;0.60;;;0.70;99.90;;;;;;5058741;28;20208;-81
2023/03/13 10:50:36;;;;;;;0.70;0.70;;;0.60;99.90;;;;;;5040612;28;20228;-79
2023/03/13 10:53:22;;;;;;;0.60;0.60;;;0.60;99.90;;;;;;5041115;28;20219;-79
2023/03/13 10:55:51;;;;;;;0.70;0.70;;;0.70;99.90;;;;;;5040810;28;20654;-79
2023/03/13 10:58:21;;;;;;;0.70;0.70;;;0.70;99.90;;;;;;5040813;28;20284;-79
2023/03/13 11:00:48;;;;;;;1.20;1.10;;;0.70;99.90;;;;;;5058647;28;20198;-79
2023/03/13 11:03:32;;;;;;;0.77;0.77;;;0.70;99.90;;;;;;5058408;28;20204;-79
2023/03/13 11:06:02;;;;;;;0.75;0.75;;;0.70;99.90;;;;;;5040737;28;20217;-79
2023/03/13 11:08:36;;;;;;;0.68;0.68;;;0.70;99.90;;;;;;5040541;28;20208;-79
2023/03/13 11:11:04;;;;;;;0.60;0.60;;;0.80;99.90;;;;;;5040902;28;20438;-78
2023/03/13 11:13:39;;;;;;;0.65;0.65;;;0.80;99.90;;;;;;5040862;28;20326;-79
2023/03/13 11:16:28;;;;;;;0.60;0.60;;;1.00;99.90;;;;;;5040822;28;20618;-79
2023/03/13 11:19:12;;;;;;;0.73;0.73;;;0.80;99.90;;;;;;5058861;28;20219;-78
2023/03/13 11:21:44;;;;;;;0.68;0.68;;;0.90;99.90;;;;;;5059005;28;20194;-78
2023/03/13 11:24:25;;;;;;;0.70;0.70;;;1.00;99.90;;;;;;5037275;28;20676;-81
2023/03/13 11:27:24;;;;;;;0.80;0.80;;;1.10;99.90;;;;;;5039073;28;20198;-79
2023/03/13 11:30:05;;;;;;;0.70;0.70;;;1.10;99.90;;;;;;5037529;28;20578;-79
2023/03/13 11:32:52;;;;;;;0.70;0.70;;;1.20;99.90;;;;;;5037308;28;20220;-79
2023/03/13 11:35:39;;;;;;;0.75;0.75;;;1.10;99.90;;;;;;5038640;28;20182;-79
2023/03/13 11:38:19;;;;;;;0.75;0.75;;;1.20;99.90;;;;;;5037540;28;20672;-79
2023/03/13 11:40:54;;;;;;;0.70;0.70;;;1.20;99.90;;;;;;5053822;28;20280;-78
2023/03/13 11:44:06;;;;;;;0.93;0.93;;;1.20;99.90;;;;;;5040886;28;20211;-79
2023/03/13 11:46:38;;;;;;;0.60;0.60;;;1.30;99.90;;;;;;5055005;28;20660;-79
2023/03/13 11:49:04;;;;;;;0.73;0.73;;;1.20;99.90;;;;;;5055441;28;20189;-78
2023/03/13 11:51:35;;;;;;;0.70;0.70;;;1.30;99.90;;;;;;5054668;28;20266;-78
2023/03/13 11:54:19;;;;;;;0.50;0.50;;;1.40;99.90;;;;;;5055247;28;20771;-79
2023/03/13 11:56:58;;;;;;;0.70;0.70;;;1.40;99.90;;;;;;5055566;28;20242;-78
2023/03/13 11:59:32;;;;;;;0.60;0.60;;;1.30;99.90;;;;;;5055727;28;20561;-81
2023/03/13 12:02:23;;;;;;;0.80;0.80;;;1.30;99.90;;;;;;5055054;28;20600;-78
2023/03/13 12:04:58;;;;;;;0.60;0.60;;;1.30;99.90;;;;;;5054947;28;20221;-78
2023/03/13 12:07:47;;;;;;;0.70;0.70;;;1.30;99.90;;;;;;5036872;28;20288;-78
2023/03/13 12:10:36;;;;;;;0.80;0.80;;;1.40;99.90;;;;;;5036477;28;20208;-78
2023/03/13 12:13:37;;;;;;;0.60;0.60;;;1.30;99.90;;;;;;5036648;28;20240;-79
2023/03/13 12:16:17;;;;;;;0.70;0.70;;;1.30;99.90;;;;;;5055132;28;20562;-80
2023/03/13 12:18:44;;;;;;;0.60;0.60;;;1.30;99.90;;;;;;5036724;28;20197;-76
2023/03/13 12:21:31;;;;;;;0.70;0.70;;;1.30;99.90;;;;;;5036892;28;20255;-79
2023/03/13 12:24:26;;;;;;;0.77;0.77;;;1.30;99.90;;;;;;5054580;28;20189;-79
2023/03/13 12:27:33;;;;;;;0.60;0.60;;;1.30;99.90;;;;;;5054512;28;20186;-76
2023/03/13 12:30:23;;;;;;;0.70;0.70;;;1.30;99.90;;;;;;5033530;28;20224;-77
2023/03/13 12:33:03;;;;;;;0.50;0.50;;;1.30;99.90;;;;;;5054222;28;20672;-78
2023/03/13 12:35:33;;;;;;;0.60;0.60;;;1.40;99.90;;;;;;5020610;28;20312;-77
2023/03/13 12:37:59;;;;;;;0.60;0.60;;;1.30;99.90;;;;;;5053018;28;20200;-77
2023/03/13 12:41:00;;;;;;;0.77;0.77;;;1.30;99.90;;;;;;5053728;28;20197;-76
2023/03/13 12:43:29;;;;;;;0.80;0.80;;;1.30;99.90;;;;;;5036108;28;20794;-76
2023/03/13 12:45:58;;;;;;;0.70;0.70;;;1.40;99.90;;;;;;5054147;28;20603;-76
2023/03/13 12:48:53;;;;;;;0.70;0.70;;;1.30;99.90;;;;;;5053742;28;20200;-76
2023/03/13 12:51:32;;;;;;;0.70;0.70;;;1.20;99.90;;;;;;5051421;28;20730;-77
2023/03/13 12:54:27;;;;;;;1.63;1.52;;;1.20;99.90;;;;;;5053930;28;20186;-76
2023/03/13 12:57:02;;;;;;;0.80;0.80;;;1.10;99.90;;;;;;5035010;28;20296;-76
2023/03/13 12:59:30;;;;;;;0.70;0.70;;;1.20;99.90;;;;;;5053780;28;20271;-76
2023/03/13 13:01:57;;;;;;;1.58;1.48;;;1.20;99.90;;;;;;5036105;28;20726;-76
2023/03/13 13:04:27;;;;;;;0.52;0.52;;;1.10;99.90;;;;;;5053567;28;20229;-76
2023/03/13 13:07:05;;;;;;;0.70;0.70;;;1.10;99.90;;;;;;5036528;28;20292;-76